sensor_id;sensor_type;location;lat;lon;timestamp;temperature;humidity
75210;DHT22;63796;53.136;14.882;2023-04-28T00:00:55;3.30;99.90
75210;DHT22;63796;53.136;14.882;2023-04-28T00:03:22;3.30;99.90
75210;DHT22;63796;53.136;14.882;2023-04-28T00:05:51;3.30;99.90
75210;DHT22;63796;53.136;14.882;2023-04-28T00:08:19;3.20;99.90
75210;DHT22;63796;53.136;14.882;2023-04-28T00:10:48;3.30;99.90
75210;DHT22;63796;53.136;14.882;2023-04-28T00:13:15;3.40;99.90
75210;DHT22;63796;53.136;14.882;2023-04-28T00:15:42;3.30;99.90
75210;DHT22;63796;53.136;14.882;2023-04-28T00:18:10;3.30;99.90
75210;DHT22;63796;53.136;14.882;2023-04-28T00:20:37;3.40;99.90
75210;DHT22;63796;53.136;14.882;2023-04-28T00:23:05;3.30;99.90
75210;DHT22;63796;53.136;14.882;2023-04-28T00:25:32;3.20;99.90
75210;DHT22;63796;53.136;14.882;2023-04-28T00:27:59;3.10;99.90
75210;DHT22;63796;53.136;14.882;2023-04-28T00:30:28;3.10;99.90
75210;DHT22;63796;53.136;14.882;2023-04-28T00:32:56;3.10;99.90
75210;DHT22;63796;53.136;14.882;2023-04-28T00:35:24;3.10;99.90
75210;DHT22;63796;53.136;14.882;2023-04-28T00:37:51;3.20;99.90
75210;DHT22;63796;53.136;14.882;2023-04-28T00:40:18;3.20;99.90
75210;DHT22;63796;53.136;14.882;2023-04-28T00:42:47;3.10;99.90
75210;DHT22;63796;53.136;14.882;2023-04-28T00:45:14;3.10;99.90
75210;DHT22;63796;53.136;14.882;2023-04-28T00:47:41;3.20;99.90
75210;DHT22;63796;53.136;14.882;2023-04-28T00:50:09;3.20;99.90
75210;DHT22;63796;53.136;14.882;2023-04-28T00:52:37;3.20;99.90
75210;DHT22;63796;53.136;14.882;2023-04-28T00:55:05;3.20;99.90
75210;DHT22;63796;53.136;14.882;2023-04-28T00:57:34;3.10;99.90
75210;DHT22;63796;53.136;14.882;2023-04-28T01:00:02;3.20;99.90
75210;DHT22;63796;53.136;14.882;2023-04-28T01:02:30;3.20;99.90
75210;DHT22;63796;53.136;14.882;2023-04-28T01:04:58;3.30;99.90
75210;DHT22;63796;53.136;14.882;2023-04-28T01:07:27;3.30;99.90
75210;DHT22;63796;53.136;14.882;2023-04-28T01:09:55;3.10;99.90
75210;DHT22;63796;53.136;14.882;2023-04-28T01:12:22;3.10;99.90
75210;DHT22;63796;53.136;14.882;2023-04-28T01:14:50;3.20;99.90
75210;DHT22;63796;53.136;14.882;2023-04-28T01:17:18;3.40;99.90
75210;DHT22;63796;53.136;14.882;2023-04-28T01:19:45;3.40;99.90
75210;DHT22;63796;53.136;14.882;2023-04-28T01:22:12;3.40;99.90
75210;DHT22;63796;53.136;14.882;2023-04-28T01:24:42;3.30;99.90
75210;DHT22;63796;53.136;14.882;2023-04-28T01:27:09;3.40;99.90
75210;DHT22;63796;53.136;14.882;2023-04-28T01:29:37;3.40;99.90
75210;DHT22;63796;53.136;14.882;2023-04-28T01:32:04;3.40;99.90
75210;DHT22;63796;53.136;14.882;2023-04-28T01:34:32;3.40;99.90
75210;DHT22;63796;53.136;14.882;2023-04-28T01:36:59;3.30;99.90
75210;DHT22;63796;53.136;14.882;2023-04-28T01:39:27;3.30;99.90
75210;DHT22;63796;53.136;14.882;2023-04-28T01:41:54;3.30;99.90
75210;DHT22;63796;53.136;14.882;2023-04-28T01:44:21;3.30;99.90
75210;DHT22;63796;53.136;14.882;2023-04-28T01:46:49;3.30;99.90
75210;DHT22;63796;53.136;14.882;2023-04-28T01:49:16;3.30;99.90
75210;DHT22;63796;53.136;14.882;2023-04-28T01:51:43;3.20;99.90
75210;DHT22;63796;53.136;14.882;2023-04-28T01:54:11;3.20;99.90
75210;DHT22;63796;53.136;14.882;2023-04-28T01:56:39;3.10;99.90
75210;DHT22;63796;53.136;14.882;2023-04-28T01:59:07;3.00;99.90
75210;DHT22;63796;53.136;14.882;2023-04-28T02:01:34;3.00;99.90
75210;DHT22;63796;53.136;14.882;2023-04-28T02:04:01;2.80;99.90
75210;DHT22;63796;53.136;14.882;2023-04-28T02:06:29;2.60;99.90
75210;DHT22;63796;53.136;14.882;2023-04-28T02:08:57;2.50;99.90
75210;DHT22;63796;53.136;14.882;2023-04-28T02:11:24;2.40;99.90
75210;DHT22;63796;53.136;14.882;2023-04-28T02:13:52;2.50;99.90
75210;DHT22;63796;53.136;14.882;2023-04-28T02:16:19;2.40;99.90
75210;DHT22;63796;53.136;14.882;2023-04-28T02:18:47;2.20;99.90
75210;DHT22;63796;53.136;14.882;2023-04-28T02:21:14;1.90;99.90
75210;DHT22;63796;53.136;14.882;2023-04-28T02:23:41;2.00;99.90
75210;DHT22;63796;53.136;14.882;2023-04-28T02:26:09;1.90;99.90
75210;DHT22;63796;53.136;14.882;2023-04-28T02:28:36;1.90;99.90
75210;DHT22;63796;53.136;14.882;2023-04-28T02:31:04;1.90;99.90
75210;DHT22;63796;53.136;14.882;2023-04-28T02:33:32;2.10;99.90
75210;DHT22;63796;53.136;14.882;2023-04-28T02:36:00;2.20;99.90
75210;DHT22;63796;53.136;14.882;2023-04-28T02:38:29;2.40;99.90
75210;DHT22;63796;53.136;14.882;2023-04-28T02:41:03;2.50;99.90
75210;DHT22;63796;53.136;14.882;2023-04-28T02:43:32;2.50;99.90
75210;DHT22;63796;53.136;14.882;2023-04-28T02:46:00;2.40;99.90
75210;DHT22;63796;53.136;14.882;2023-04-28T02:48:29;2.30;99.90
75210;DHT22;63796;53.136;14.882;2023-04-28T02:50:56;2.20;99.90
75210;DHT22;63796;53.136;14.882;2023-04-28T02:53:24;2.20;99.90
75210;DHT22;63796;53.136;14.882;2023-04-28T02:55:52;2.10;99.90
75210;DHT22;63796;53.136;14.882;2023-04-28T02:58:19;2.10;99.90
75210;DHT22;63796;53.136;14.882;2023-04-28T03:00:47;2.10;99.90
75210;DHT22;63796;53.136;14.882;2023-04-28T03:03:15;2.20;99.90
75210;DHT22;63796;53.136;14.882;2023-04-28T03:05:42;2.30;99.90
75210;DHT22;63796;53.136;14.882;2023-04-28T03:08:10;2.30;99.90
75210;DHT22;63796;53.136;14.882;2023-04-28T03:10:37;2.30;99.90
75210;DHT22;63796;53.136;14.882;2023-04-28T03:13:04;2.30;99.90
75210;DHT22;63796;53.136;14.882;2023-04-28T03:15:32;2.40;99.90
75210;DHT22;63796;53.136;14.882;2023-04-28T03:17:59;2.40;99.90
75210;DHT22;63796;53.136;14.882;2023-04-28T03:20:27;2.30;99.90
75210;DHT22;63796;53.136;14.882;2023-04-28T03:22:54;2.30;99.90
75210;DHT22;63796;53.136;14.882;2023-04-28T03:25:22;2.30;99.90
75210;DHT22;63796;53.136;14.882;2023-04-28T03:27:49;2.40;99.90
75210;DHT22;63796;53.136;14.882;2023-04-28T03:30:16;2.30;99.90
75210;DHT22;63796;53.136;14.882;2023-04-28T03:32:44;2.30;99.90
75210;DHT22;63796;53.136;14.882;2023-04-28T03:35:11;2.30;99.90
75210;DHT22;63796;53.136;14.882;2023-04-28T03:37:38;2.20;99.90
75210;DHT22;63796;53.136;14.882;2023-04-28T03:40:06;2.30;99.90
75210;DHT22;63796;53.136;14.882;2023-04-28T03:42:34;2.40;99.90
75210;DHT22;63796;53.136;14.882;2023-04-28T03:45:01;2.30;99.90
75210;DHT22;63796;53.136;14.882;2023-04-28T03:47:29;2.40;99.90
75210;DHT22;63796;53.136;14.882;2023-04-28T03:49:56;2.40;99.90
75210;DHT22;63796;53.136;14.882;2023-04-28T03:52:25;2.50;99.90
75210;DHT22;63796;53.136;14.882;2023-04-28T03:54:53;2.50;99.90
75210;DHT22;63796;53.136;14.882;2023-04-28T03:57:20;2.50;99.90
75210;DHT22;63796;53.136;14.882;2023-04-28T03:59:47;2.30;99.90
75210;DHT22;63796;53.136;14.882;2023-04-28T04:02:15;2.40;99.90
75210;DHT22;63796;53.136;14.882;2023-04-28T04:04:42;2.50;99.90
75210;DHT22;63796;53.136;14.882;2023-04-28T04:07:10;2.60;99.90
75210;DHT22;63796;53.136;14.882;2023-04-28T04:09:37;2.50;99.90
75210;DHT22;63796;53.136;14.882;2023-04-28T04:12:05;2.60;99.90
75210;DHT22;63796;53.136;14.882;2023-04-28T04:14:32;2.70;99.90
75210;DHT22;63796;53.136;14.882;2023-04-28T04:17:00;2.90;99.90
75210;DHT22;63796;53.136;14.882;2023-04-28T04:19:28;3.20;99.90
75210;DHT22;63796;53.136;14.882;2023-04-28T04:21:55;3.40;99.90
75210;DHT22;63796;53.136;14.882;2023-04-28T04:24:22;3.70;99.90
75210;DHT22;63796;53.136;14.882;2023-04-28T04:26:50;3.90;99.90
75210;DHT22;63796;53.136;14.882;2023-04-28T04:29:17;3.90;99.90
75210;DHT22;63796;53.136;14.882;2023-04-28T04:31:45;4.10;99.90
75210;DHT22;63796;53.136;14.882;2023-04-28T04:34:12;4.20;99.90
75210;DHT22;63796;53.136;14.882;2023-04-28T04:36:40;4.30;99.90
75210;DHT22;63796;53.136;14.882;2023-04-28T04:39:07;4.60;99.90
75210;DHT22;63796;53.136;14.882;2023-04-28T04:41:35;4.60;99.90
75210;DHT22;63796;53.136;14.882;2023-04-28T04:44:02;4.90;99.90
75210;DHT22;63796;53.136;14.882;2023-04-28T04:46:30;5.00;99.90
75210;DHT22;63796;53.136;14.882;2023-04-28T04:48:58;5.30;99.90
75210;DHT22;63796;53.136;14.882;2023-04-28T04:51:25;5.60;99.90
75210;DHT22;63796;53.136;14.882;2023-04-28T04:53:53;5.90;99.90
75210;DHT22;63796;53.136;14.882;2023-04-28T04:56:21;6.00;99.90
75210;DHT22;63796;53.136;14.882;2023-04-28T04:58:49;6.60;99.90
75210;DHT22;63796;53.136;14.882;2023-04-28T05:01:18;7.20;99.90
75210;DHT22;63796;53.136;14.882;2023-04-28T05:03:45;8.20;99.90
75210;DHT22;63796;53.136;14.882;2023-04-28T05:06:13;9.50;99.90
75210;DHT22;63796;53.136;14.882;2023-04-28T05:08:41;11.30;99.90
75210;DHT22;63796;53.136;14.882;2023-04-28T05:11:08;12.60;99.90
75210;DHT22;63796;53.136;14.882;2023-04-28T05:13:35;14.00;94.00
75210;DHT22;63796;53.136;14.882;2023-04-28T05:16:03;14.50;90.10
75210;DHT22;63796;53.136;14.882;2023-04-28T05:18:31;15.80;83.80
75210;DHT22;63796;53.136;14.882;2023-04-28T05:20:58;16.40;78.10
75210;DHT22;63796;53.136;14.882;2023-04-28T05:23:26;17.30;75.00
75210;DHT22;63796;53.136;14.882;2023-04-28T05:25:53;17.70;72.00
75210;DHT22;63796;53.136;14.882;2023-04-28T05:28:20;17.90;71.50
75210;DHT22;63796;53.136;14.882;2023-04-28T05:30:48;16.40;73.40
75210;DHT22;63796;53.136;14.882;2023-04-28T05:33:15;13.40;82.60
75210;DHT22;63796;53.136;14.882;2023-04-28T05:35:43;11.40;88.10
75210;DHT22;63796;53.136;14.882;2023-04-28T05:38:10;10.60;93.20
75210;DHT22;63796;53.136;14.882;2023-04-28T05:40:38;10.20;96.10
75210;DHT22;63796;53.136;14.882;2023-04-28T05:43:05;10.10;97.00
75210;DHT22;63796;53.136;14.882;2023-04-28T05:45:32;9.70;98.40
75210;DHT22;63796;53.136;14.882;2023-04-28T05:48:01;9.30;99.90
75210;DHT22;63796;53.136;14.882;2023-04-28T05:50:28;9.40;99.90
75210;DHT22;63796;53.136;14.882;2023-04-28T05:52:55;9.70;99.90
75210;DHT22;63796;53.136;14.882;2023-04-28T05:55:23;10.10;99.90
75210;DHT22;63796;53.136;14.882;2023-04-28T05:57:52;10.70;99.90
75210;DHT22;63796;53.136;14.882;2023-04-28T06:00:19;10.40;99.90
75210;DHT22;63796;53.136;14.882;2023-04-28T06:02:48;10.90;99.90
75210;DHT22;63796;53.136;14.882;2023-04-28T06:05:16;11.10;99.30
75210;DHT22;63796;53.136;14.882;2023-04-28T06:07:43;12.70;98.90
75210;DHT22;63796;53.136;14.882;2023-04-28T06:10:12;16.50;84.50
75210;DHT22;63796;53.136;14.882;2023-04-28T06:12:40;14.80;82.60
75210;DHT22;63796;53.136;14.882;2023-04-28T06:15:07;13.90;89.00
75210;DHT22;63796;53.136;14.882;2023-04-28T06:17:35;13.30;91.10
75210;DHT22;63796;53.136;14.882;2023-04-28T06:20:04;15.80;89.80
75210;DHT22;63796;53.136;14.882;2023-04-28T06:22:32;17.40;78.50
75210;DHT22;63796;53.136;14.882;2023-04-28T06:25:00;16.20;79.20
75210;DHT22;63796;53.136;14.882;2023-04-28T06:27:27;16.30;79.70
75210;DHT22;63796;53.136;14.882;2023-04-28T06:29:58;17.30;73.30
75210;DHT22;63796;53.136;14.882;2023-04-28T06:32:26;17.50;73.10
75210;DHT22;63796;53.136;14.882;2023-04-28T06:34:53;16.50;76.80
75210;DHT22;63796;53.136;14.882;2023-04-28T06:37:23;16.20;79.20
75210;DHT22;63796;53.136;14.882;2023-04-28T06:39:51;17.90;71.50
75210;DHT22;63796;53.136;14.882;2023-04-28T06:42:18;16.80;71.30
75210;DHT22;63796;53.136;14.882;2023-04-28T06:44:46;16.80;70.80
75210;DHT22;63796;53.136;14.882;2023-04-28T06:47:14;16.10;72.40
75210;DHT22;63796;53.136;14.882;2023-04-28T06:49:41;15.50;74.10
75210;DHT22;63796;53.136;14.882;2023-04-28T06:52:10;14.70;77.00
75210;DHT22;63796;53.136;14.882;2023-04-28T06:54:37;14.40;76.90
75210;DHT22;63796;53.136;14.882;2023-04-28T06:57:05;14.40;78.60
75210;DHT22;63796;53.136;14.882;2023-04-28T06:59:32;14.70;78.70
75210;DHT22;63796;53.136;14.882;2023-04-28T07:02:00;14.60;78.70
75210;DHT22;63796;53.136;14.882;2023-04-28T07:04:28;14.30;75.80
75210;DHT22;63796;53.136;14.882;2023-04-28T07:06:55;14.00;76.90
75210;DHT22;63796;53.136;14.882;2023-04-28T07:09:23;13.90;75.70
75210;DHT22;63796;53.136;14.882;2023-04-28T07:11:50;13.70;76.00
75210;DHT22;63796;53.136;14.882;2023-04-28T07:14:17;13.70;77.70
75210;DHT22;63796;53.136;14.882;2023-04-28T07:16:45;13.80;77.80
75210;DHT22;63796;53.136;14.882;2023-04-28T07:19:13;13.70;76.00
75210;DHT22;63796;53.136;14.882;2023-04-28T07:21:40;13.60;79.30
75210;DHT22;63796;53.136;14.882;2023-04-28T07:24:07;13.90;78.30
75210;DHT22;63796;53.136;14.882;2023-04-28T07:26:35;14.30;76.70
75210;DHT22;63796;53.136;14.882;2023-04-28T07:29:03;14.50;76.60
75210;DHT22;63796;53.136;14.882;2023-04-28T07:31:30;14.60;74.50
75210;DHT22;63796;53.136;14.882;2023-04-28T07:33:58;14.30;72.00
75210;DHT22;63796;53.136;14.882;2023-04-28T07:36:25;14.90;74.40
75210;DHT22;63796;53.136;14.882;2023-04-28T07:38:53;15.10;74.00
75210;DHT22;63796;53.136;14.882;2023-04-28T07:41:20;15.10;75.30
75210;DHT22;63796;53.136;14.882;2023-04-28T07:43:48;15.30;70.20
75210;DHT22;63796;53.136;14.882;2023-04-28T07:46:15;14.90;68.20
75210;DHT22;63796;53.136;14.882;2023-04-28T07:48:43;15.20;68.40
75210;DHT22;63796;53.136;14.882;2023-04-28T07:51:10;15.00;65.30
75210;DHT22;63796;53.136;14.882;2023-04-28T07:53:38;15.30;66.00
75210;DHT22;63796;53.136;14.882;2023-04-28T07:56:05;15.80;67.70
75210;DHT22;63796;53.136;14.882;2023-04-28T07:58:33;16.30;63.80
75210;DHT22;63796;53.136;14.882;2023-04-28T08:01:00;16.20;63.50
75210;DHT22;63796;53.136;14.882;2023-04-28T08:03:28;17.40;61.70
75210;DHT22;63796;53.136;14.882;2023-04-28T08:05:56;18.10;59.60
75210;DHT22;63796;53.136;14.882;2023-04-28T08:08:24;18.50;57.20
75210;DHT22;63796;53.136;14.882;2023-04-28T08:10:52;19.00;55.00
75210;DHT22;63796;53.136;14.882;2023-04-28T08:13:20;19.60;54.40
75210;DHT22;63796;53.136;14.882;2023-04-28T08:15:48;21.50;53.00
75210;DHT22;63796;53.136;14.882;2023-04-28T08:18:15;21.50;51.00
75210;DHT22;63796;53.136;14.882;2023-04-28T08:20:43;21.20;51.60
75210;DHT22;63796;53.136;14.882;2023-04-28T08:23:11;24.40;49.00
75210;DHT22;63796;53.136;14.882;2023-04-28T08:25:38;22.50;48.80
75210;DHT22;63796;53.136;14.882;2023-04-28T08:28:06;21.20;48.90
75210;DHT22;63796;53.136;14.882;2023-04-28T08:30:34;20.30;50.40
75210;DHT22;63796;53.136;14.882;2023-04-28T08:33:04;21.10;48.90
75210;DHT22;63796;53.136;14.882;2023-04-28T08:35:33;22.00;48.80
75210;DHT22;63796;53.136;14.882;2023-04-28T08:38:00;21.70;48.20
75210;DHT22;63796;53.136;14.882;2023-04-28T08:40:28;21.60;48.60
75210;DHT22;63796;53.136;14.882;2023-04-28T08:42:58;22.50;49.00
75210;DHT22;63796;53.136;14.882;2023-04-28T08:45:26;22.60;47.20
75210;DHT22;63796;53.136;14.882;2023-04-28T08:47:57;22.10;48.50
75210;DHT22;63796;53.136;14.882;2023-04-28T08:50:26;22.90;47.90
75210;DHT22;63796;53.136;14.882;2023-04-28T08:52:57;23.40;46.60
75210;DHT22;63796;53.136;14.882;2023-04-28T08:55:25;22.40;46.30
75210;DHT22;63796;53.136;14.882;2023-04-28T08:57:53;22.30;46.40
75210;DHT22;63796;53.136;14.882;2023-04-28T09:00:21;23.40;45.90
75210;DHT22;63796;53.136;14.882;2023-04-28T09:02:49;23.70;44.70
75210;DHT22;63796;53.136;14.882;2023-04-28T09:05:16;21.10;47.00
75210;DHT22;63796;53.136;14.882;2023-04-28T09:07:44;21.50;47.70
75210;DHT22;63796;53.136;14.882;2023-04-28T09:10:16;24.90;44.10
75210;DHT22;63796;53.136;14.882;2023-04-28T09:12:46;23.10;46.60
75210;DHT22;63796;53.136;14.882;2023-04-28T09:18:01;23.80;44.40
75210;DHT22;63796;53.136;14.882;2023-04-28T09:20:30;24.00;44.70
75210;DHT22;63796;53.136;14.882;2023-04-28T09:23:19;25.90;43.60
75210;DHT22;63796;53.136;14.882;2023-04-28T09:25:54;24.00;43.40
75210;DHT22;63796;53.136;14.882;2023-04-28T09:28:34;25.30;41.90
75210;DHT22;63796;53.136;14.882;2023-04-28T09:31:02;25.70;41.50
75210;DHT22;63796;53.136;14.882;2023-04-28T09:33:30;22.60;44.20
75210;DHT22;63796;53.136;14.882;2023-04-28T09:35:57;25.80;42.70
75210;DHT22;63796;53.136;14.882;2023-04-28T09:38:25;24.20;44.10
75210;DHT22;63796;53.136;14.882;2023-04-28T09:45:58;25.90;43.20
75210;DHT22;63796;53.136;14.882;2023-04-28T09:48:28;28.30;39.80
75210;DHT22;63796;53.136;14.882;2023-04-28T09:51:00;25.70;40.90
75210;DHT22;63796;53.136;14.882;2023-04-28T09:53:32;27.10;40.90
75210;DHT22;63796;53.136;14.882;2023-04-28T09:56:01;26.50;41.80
75210;DHT22;63796;53.136;14.882;2023-04-28T09:58:31;27.90;38.80
75210;DHT22;63796;53.136;14.882;2023-04-28T10:01:02;25.40;41.80
75210;DHT22;63796;53.136;14.882;2023-04-28T10:03:31;26.30;40.80
75210;DHT22;63796;53.136;14.882;2023-04-28T10:05:58;25.00;42.20
75210;DHT22;63796;53.136;14.882;2023-04-28T10:08:26;27.20;39.70
75210;DHT22;63796;53.136;14.882;2023-04-28T10:10:53;25.00;42.10
75210;DHT22;63796;53.136;14.882;2023-04-28T10:13:23;25.00;42.20
75210;DHT22;63796;53.136;14.882;2023-04-28T10:15:50;26.40;41.20
75210;DHT22;63796;53.136;14.882;2023-04-28T10:18:22;25.80;40.60
75210;DHT22;63796;53.136;14.882;2023-04-28T10:20:59;26.00;41.10
75210;DHT22;63796;53.136;14.882;2023-04-28T10:25:57;31.10;37.90
75210;DHT22;63796;53.136;14.882;2023-04-28T10:28:25;28.80;38.80
75210;DHT22;63796;53.136;14.882;2023-04-28T10:31:12;26.40;41.60
75210;DHT22;63796;53.136;14.882;2023-04-28T10:33:40;27.80;40.40
75210;DHT22;63796;53.136;14.882;2023-04-28T10:36:08;28.00;39.80
75210;DHT22;63796;53.136;14.882;2023-04-28T10:39:06;26.10;41.10
75210;DHT22;63796;53.136;14.882;2023-04-28T10:41:45;28.00;39.50
75210;DHT22;63796;53.136;14.882;2023-04-28T10:55:41;26.20;42.30
75210;DHT22;63796;53.136;14.882;2023-04-28T11:00:42;30.80;39.10
75210;DHT22;63796;53.136;14.882;2023-04-28T11:06:24;23.40;44.10
75210;DHT22;63796;53.136;14.882;2023-04-28T11:09:02;27.30;42.20
75210;DHT22;63796;53.136;14.882;2023-04-28T11:14:36;25.70;43.00
75210;DHT22;63796;53.136;14.882;2023-04-28T11:17:07;26.10;43.20
75210;DHT22;63796;53.136;14.882;2023-04-28T11:19:41;26.20;41.10
75210;DHT22;63796;53.136;14.882;2023-04-28T11:22:15;28.20;40.80
75210;DHT22;63796;53.136;14.882;2023-04-28T11:24:59;24.60;42.70
75210;DHT22;63796;53.136;14.882;2023-04-28T11:27:29;25.50;42.40
75210;DHT22;63796;53.136;14.882;2023-04-28T11:29:57;25.20;42.40
75210;DHT22;63796;53.136;14.882;2023-04-28T11:32:29;22.40;44.90
75210;DHT22;63796;53.136;14.882;2023-04-28T11:34:58;24.40;43.80
75210;DHT22;63796;53.136;14.882;2023-04-28T11:37:25;26.20;42.80
75210;DHT22;63796;53.136;14.882;2023-04-28T11:39:53;28.20;41.30
75210;DHT22;63796;53.136;14.882;2023-04-28T11:42:20;27.30;41.10
75210;DHT22;63796;53.136;14.882;2023-04-28T11:44:48;27.90;41.20
75210;DHT22;63796;53.136;14.882;2023-04-28T11:47:27;27.10;41.20
75210;DHT22;63796;53.136;14.882;2023-04-28T11:49:59;26.90;42.30
75210;DHT22;63796;53.136;14.882;2023-04-28T11:52:28;26.70;41.80
75210;DHT22;63796;53.136;14.882;2023-04-28T11:54:56;24.30;43.60
75210;DHT22;63796;53.136;14.882;2023-04-28T11:57:26;24.20;43.80
75210;DHT22;63796;53.136;14.882;2023-04-28T12:00:10;24.90;43.80
75210;DHT22;63796;53.136;14.882;2023-04-28T12:02:40;28.30;40.40
75210;DHT22;63796;53.136;14.882;2023-04-28T12:05:08;29.70;41.00
75210;DHT22;63796;53.136;14.882;2023-04-28T12:07:40;28.70;41.60
75210;DHT22;63796;53.136;14.882;2023-04-28T12:10:12;24.10;44.40
75210;DHT22;63796;53.136;14.882;2023-04-28T12:12:44;22.70;47.90
75210;DHT22;63796;53.136;14.882;2023-04-28T12:15:19;25.50;45.70
75210;DHT22;63796;53.136;14.882;2023-04-28T12:17:48;25.60;44.20
75210;DHT22;63796;53.136;14.882;2023-04-28T12:20:33;25.20;44.80
75210;DHT22;63796;53.136;14.882;2023-04-28T12:23:02;24.20;45.40
75210;DHT22;63796;53.136;14.882;2023-04-28T12:25:29;26.40;43.90
75210;DHT22;63796;53.136;14.882;2023-04-28T12:28:06;24.00;45.90
75210;DHT22;63796;53.136;14.882;2023-04-28T12:30:35;23.20;47.30
75210;DHT22;63796;53.136;14.882;2023-04-28T12:33:22;25.00;48.10
75210;DHT22;63796;53.136;14.882;2023-04-28T12:35:55;24.70;45.80
75210;DHT22;63796;53.136;14.882;2023-04-28T12:38:24;24.10;46.90
75210;DHT22;63796;53.136;14.882;2023-04-28T12:40:52;23.50;47.70
75210;DHT22;63796;53.136;14.882;2023-04-28T12:43:20;22.90;47.60
75210;DHT22;63796;53.136;14.882;2023-04-28T12:45:49;23.50;46.90
75210;DHT22;63796;53.136;14.882;2023-04-28T12:48:19;23.50;48.50
75210;DHT22;63796;53.136;14.882;2023-04-28T12:50:48;23.30;47.90
75210;DHT22;63796;53.136;14.882;2023-04-28T12:53:15;21.60;51.00
75210;DHT22;63796;53.136;14.882;2023-04-28T12:55:42;22.50;50.10
75210;DHT22;63796;53.136;14.882;2023-04-28T12:58:10;20.80;51.70
75210;DHT22;63796;53.136;14.882;2023-04-28T13:00:37;21.20;53.00
75210;DHT22;63796;53.136;14.882;2023-04-28T13:03:05;20.70;52.90
75210;DHT22;63796;53.136;14.882;2023-04-28T13:05:32;21.80;51.20
75210;DHT22;63796;53.136;14.882;2023-04-28T13:08:01;22.00;52.50
75210;DHT22;63796;53.136;14.882;2023-04-28T13:10:28;20.60;52.80
75210;DHT22;63796;53.136;14.882;2023-04-28T13:12:55;19.30;56.90
75210;DHT22;63796;53.136;14.882;2023-04-28T13:15:23;19.50;55.30
75210;DHT22;63796;53.136;14.882;2023-04-28T13:17:50;20.40;53.60
75210;DHT22;63796;53.136;14.882;2023-04-28T13:20:17;19.90;54.30
75210;DHT22;63796;53.136;14.882;2023-04-28T13:22:45;18.60;57.10
75210;DHT22;63796;53.136;14.882;2023-04-28T13:25:12;18.10;58.00
75210;DHT22;63796;53.136;14.882;2023-04-28T13:27:39;18.20;58.70
75210;DHT22;63796;53.136;14.882;2023-04-28T13:30:09;17.90;59.20
75210;DHT22;63796;53.136;14.882;2023-04-28T13:32:37;18.50;58.40
75210;DHT22;63796;53.136;14.882;2023-04-28T13:35:05;18.40;58.40
75210;DHT22;63796;53.136;14.882;2023-04-28T13:37:32;17.60;59.80
75210;DHT22;63796;53.136;14.882;2023-04-28T13:40:01;17.90;60.70
75210;DHT22;63796;53.136;14.882;2023-04-28T13:42:30;17.90;60.10
75210;DHT22;63796;53.136;14.882;2023-04-28T13:44:57;17.60;59.50
75210;DHT22;63796;53.136;14.882;2023-04-28T13:47:24;17.20;60.00
75210;DHT22;63796;53.136;14.882;2023-04-28T13:49:52;17.60;60.20
75210;DHT22;63796;53.136;14.882;2023-04-28T13:52:19;17.30;60.40
75210;DHT22;63796;53.136;14.882;2023-04-28T13:54:48;17.30;60.60
75210;DHT22;63796;53.136;14.882;2023-04-28T13:57:16;17.50;60.80
75210;DHT22;63796;53.136;14.882;2023-04-28T13:59:43;17.70;61.60
75210;DHT22;63796;53.136;14.882;2023-04-28T14:02:11;17.60;60.30
75210;DHT22;63796;53.136;14.882;2023-04-28T14:04:38;18.00;59.60
75210;DHT22;63796;53.136;14.882;2023-04-28T14:07:06;18.40;59.60
75210;DHT22;63796;53.136;14.882;2023-04-28T14:09:34;18.30;60.40
75210;DHT22;63796;53.136;14.882;2023-04-28T14:12:01;17.50;60.80
75210;DHT22;63796;53.136;14.882;2023-04-28T14:14:28;17.50;61.20
75210;DHT22;63796;53.136;14.882;2023-04-28T14:16:56;17.80;60.70
75210;DHT22;63796;53.136;14.882;2023-04-28T14:19:24;17.90;60.90
75210;DHT22;63796;53.136;14.882;2023-04-28T14:21:52;17.40;62.10
75210;DHT22;63796;53.136;14.882;2023-04-28T14:24:20;17.60;63.60
75210;DHT22;63796;53.136;14.882;2023-04-28T14:26:47;17.40;62.40
75210;DHT22;63796;53.136;14.882;2023-04-28T14:29:15;17.30;64.80
75210;DHT22;63796;53.136;14.882;2023-04-28T14:31:42;17.60;63.80
75210;DHT22;63796;53.136;14.882;2023-04-28T14:34:10;17.30;63.80
75210;DHT22;63796;53.136;14.882;2023-04-28T14:36:37;17.80;63.00
75210;DHT22;63796;53.136;14.882;2023-04-28T14:39:05;17.80;63.50
75210;DHT22;63796;53.136;14.882;2023-04-28T14:41:32;17.60;62.50
75210;DHT22;63796;53.136;14.882;2023-04-28T14:43:59;17.60;63.00
75210;DHT22;63796;53.136;14.882;2023-04-28T14:46:27;17.60;62.70
75210;DHT22;63796;53.136;14.882;2023-04-28T14:48:54;17.50;62.30
75210;DHT22;63796;53.136;14.882;2023-04-28T14:51:24;17.60;60.50
75210;DHT22;63796;53.136;14.882;2023-04-28T14:53:51;17.50;62.10
75210;DHT22;63796;53.136;14.882;2023-04-28T14:56:19;17.70;62.50
75210;DHT22;63796;53.136;14.882;2023-04-28T14:58:46;17.50;64.20
75210;DHT22;63796;53.136;14.882;2023-04-28T15:01:14;17.50;64.30
75210;DHT22;63796;53.136;14.882;2023-04-28T15:03:43;17.20;64.50
75210;DHT22;63796;53.136;14.882;2023-04-28T15:06:11;17.50;65.00
75210;DHT22;63796;53.136;14.882;2023-04-28T15:08:39;17.40;65.80
75210;DHT22;63796;53.136;14.882;2023-04-28T15:11:07;17.30;66.00
75210;DHT22;63796;53.136;14.882;2023-04-28T15:13:34;17.10;66.10
75210;DHT22;63796;53.136;14.882;2023-04-28T15:16:01;17.20;66.50
75210;DHT22;63796;53.136;14.882;2023-04-28T15:18:29;17.40;67.90
75210;DHT22;63796;53.136;14.882;2023-04-28T15:20:56;17.40;68.20
75210;DHT22;63796;53.136;14.882;2023-04-28T15:23:24;17.10;68.70
75210;DHT22;63796;53.136;14.882;2023-04-28T15:25:51;17.10;69.00
75210;DHT22;63796;53.136;14.882;2023-04-28T15:28:20;17.00;69.50
75210;DHT22;63796;53.136;14.882;2023-04-28T15:30:47;16.90;70.30
75210;DHT22;63796;53.136;14.882;2023-04-28T15:33:15;16.60;70.50
75210;DHT22;63796;53.136;14.882;2023-04-28T15:35:45;16.50;71.30
75210;DHT22;63796;53.136;14.882;2023-04-28T15:38:13;16.50;70.60
75210;DHT22;63796;53.136;14.882;2023-04-28T15:40:40;16.70;71.40
75210;DHT22;63796;53.136;14.882;2023-04-28T15:43:09;16.50;71.10
75210;DHT22;63796;53.136;14.882;2023-04-28T15:45:37;16.60;72.10
75210;DHT22;63796;53.136;14.882;2023-04-28T15:48:05;16.50;73.20
75210;DHT22;63796;53.136;14.882;2023-04-28T15:50:32;16.60;74.30
75210;DHT22;63796;53.136;14.882;2023-04-28T15:53:01;17.00;74.80
75210;DHT22;63796;53.136;14.882;2023-04-28T15:55:29;16.80;74.10
75210;DHT22;63796;53.136;14.882;2023-04-28T15:57:56;16.70;74.60